createdAt,value
2023-04-28T00:01:12.068Z,9.74
2023-04-28T00:03:38.813Z,9.68
2023-04-28T00:06:05.999Z,9.70
2023-04-28T00:08:32.733Z,9.65
2023-04-28T00:10:59.313Z,9.61
2023-04-28T00:13:25.781Z,9.58
2023-04-28T00:15:53.056Z,9.60
2023-04-28T00:18:20.389Z,9.56
2023-04-28T00:20:47.820Z,9.54
2023-04-28T00:23:14.263Z,9.51
2023-04-28T00:25:40.760Z,9.50
2023-04-28T00:28:07.219Z,9.48
2023-04-28T00:30:33.651Z,9.45
2023-04-28T00:33:00.182Z,9.46
2023-04-28T00:35:26.715Z,9.40
2023-04-28T00:37:53.167Z,9.37
2023-04-28T00:40:19.608Z,9.36
2023-04-28T00:42:46.075Z,9.36
2023-04-28T00:45:12.642Z,9.30
2023-04-28T00:47:39.219Z,9.30
2023-04-28T00:50:06.406Z,9.25
2023-04-28T00:52:32.954Z,9.26
2023-04-28T00:54:59.606Z,9.24
2023-04-28T00:57:26.077Z,9.14
2023-04-28T00:59:52.546Z,9.21
2023-04-28T01:02:20.089Z,9.17
2023-04-28T01:04:47.132Z,9.17
2023-04-28T01:07:14.879Z,9.11
2023-04-28T01:09:41.871Z,9.11
2023-04-28T01:12:09.490Z,9.07
2023-04-28T01:14:44.055Z,9.03
2023-04-28T01:17:11.279Z,9.01
2023-04-28T01:19:38.019Z,9.01
2023-04-28T01:22:04.834Z,8.97
2023-04-28T01:24:31.672Z,8.92
2023-04-28T01:27:02.973Z,8.95
2023-04-28T01:29:29.544Z,8.87
2023-04-28T01:31:56.192Z,8.90
2023-04-28T01:34:22.706Z,8.88
2023-04-28T01:36:49.162Z,8.81
2023-04-28T01:39:15.642Z,8.82
2023-04-28T01:41:42.479Z,8.80
2023-04-28T01:44:09.025Z,8.75
2023-04-28T01:46:36.336Z,8.76
2023-04-28T01:49:02.915Z,8.70
2023-04-28T01:51:29.335Z,8.70
2023-04-28T01:53:55.958Z,8.66
2023-04-28T01:56:23.358Z,8.66
2023-04-28T01:58:51.597Z,8.61
2023-04-28T02:01:18.126Z,8.60
2023-04-28T02:03:44.728Z,8.60
2023-04-28T02:06:11.429Z,8.54
2023-04-28T02:08:37.949Z,8.54
2023-04-28T02:11:05.500Z,8.52
2023-04-28T02:13:31.930Z,8.50
2023-04-28T02:16:02.301Z,8.49
2023-04-28T02:18:28.921Z,8.45
2023-04-28T02:21:08.601Z,8.40
2023-04-28T02:23:36.016Z,8.39
2023-04-28T02:26:05.250Z,8.38
2023-04-28T02:28:31.759Z,8.34
2023-04-28T02:31:08.920Z,8.29
2023-04-28T02:33:36.006Z,8.28
2023-04-28T02:36:04.348Z,8.28
2023-04-28T02:38:31.191Z,8.22
2023-04-28T02:41:05.040Z,8.22
2023-04-28T02:43:32.196Z,8.18
2023-04-28T02:45:58.898Z,8.18
2023-04-28T02:48:25.923Z,8.15
2023-04-28T02:50:53.326Z,8.13
2023-04-28T02:53:20.839Z,8.11
2023-04-28T02:55:48.069Z,8.05
2023-04-28T02:58:14.670Z,8.02
2023-04-28T03:00:41.217Z,8.01
2023-04-28T03:03:07.809Z,8.01
2023-04-28T03:05:34.688Z,7.94
2023-04-28T03:08:01.208Z,7.93
2023-04-28T03:10:28.363Z,7.94
2023-04-28T03:12:54.829Z,7.90
2023-04-28T03:15:21.422Z,7.90
2023-04-28T03:17:48.145Z,7.86
2023-04-28T03:20:15.179Z,7.85
2023-04-28T03:22:41.738Z,7.83
2023-04-28T03:25:08.388Z,7.79
2023-04-28T03:27:42.337Z,7.75
2023-04-28T03:30:10.675Z,7.77
2023-04-28T03:32:37.484Z,7.65
2023-04-28T03:35:04.458Z,7.67
2023-04-28T03:37:31.027Z,7.66
2023-04-28T03:39:57.543Z,7.62
2023-04-28T03:42:24.288Z,7.63
2023-04-28T03:45:07.872Z,7.61
2023-04-28T03:47:34.954Z,7.56
2023-04-28T03:50:01.491Z,7.56
2023-04-28T03:52:28.014Z,7.49
2023-04-28T03:54:55.066Z,7.52
2023-04-28T03:57:21.521Z,7.51
2023-04-28T03:59:47.942Z,7.51
2023-04-28T04:02:16.157Z,7.48
2023-04-28T04:04:44.089Z,7.47
2023-04-28T04:07:11.327Z,7.44
2023-04-28T04:09:37.793Z,7.42
2023-04-28T04:12:05.074Z,7.42
2023-04-28T04:14:32.184Z,7.36
2023-04-28T04:16:59.601Z,7.38
2023-04-28T04:19:26.651Z,7.37
2023-04-28T04:21:54.913Z,7.36
2023-04-28T04:24:22.005Z,7.34
2023-04-28T04:26:48.565Z,7.34
2023-04-28T04:29:28.412Z,7.27
2023-04-28T04:31:55.287Z,7.31
2023-04-28T04:34:21.762Z,7.30
2023-04-28T04:36:48.243Z,7.24
2023-04-28T04:39:14.735Z,7.25
2023-04-28T04:41:42.334Z,7.26
2023-04-28T04:44:32.855Z,7.24
2023-04-28T04:47:00.782Z,7.25
2023-04-28T04:49:27.428Z,7.11
2023-04-28T04:51:55.278Z,7.22
2023-04-28T04:54:21.846Z,7.21
2023-04-28T04:56:48.592Z,7.23
2023-04-28T04:59:21.674Z,7.21
2023-04-28T05:01:56.687Z,7.18
2023-04-28T05:04:23.945Z,7.22
2023-04-28T05:06:51.500Z,7.21
2023-04-28T05:09:18.539Z,7.11
2023-04-28T05:11:45.682Z,7.23
2023-04-28T05:14:12.732Z,7.22
2023-04-28T05:16:42.406Z,7.21
2023-04-28T05:19:12.051Z,7.23
2023-04-28T05:21:38.623Z,7.25
2023-04-28T05:24:05.642Z,7.22
2023-04-28T05:26:32.116Z,7.18
2023-04-28T05:29:04.820Z,7.26
2023-04-28T05:31:31.547Z,7.28
2023-04-28T05:33:58.845Z,7.30
2023-04-28T05:36:25.700Z,7.34
2023-04-28T05:38:52.240Z,7.36
2023-04-28T05:41:19.224Z,7.37
2023-04-28T05:43:46.388Z,7.42
2023-04-28T05:46:28.159Z,7.44
2023-04-28T05:48:57.922Z,7.46
2023-04-28T05:51:24.801Z,7.52
2023-04-28T05:53:51.585Z,7.54
2023-04-28T05:56:18.183Z,7.58
2023-04-28T05:58:45.051Z,7.61
2023-04-28T06:01:11.847Z,7.60
2023-04-28T06:03:41.860Z,7.67
2023-04-28T06:06:10.958Z,7.71
2023-04-28T06:08:38.533Z,7.69
2023-04-28T06:11:05.902Z,7.77
2023-04-28T06:13:32.613Z,7.79
2023-04-28T06:15:59.363Z,7.80
2023-04-28T06:18:26.998Z,7.85
2023-04-28T06:20:53.439Z,7.86
2023-04-28T06:23:20.138Z,7.89
2023-04-28T06:25:47.859Z,7.93
2023-04-28T06:28:14.937Z,7.92
2023-04-28T06:30:41.737Z,8.00
2023-04-28T06:33:08.283Z,8.00
2023-04-28T06:35:36.447Z,8.04
2023-04-28T06:38:03.697Z,8.08
2023-04-28T06:40:30.266Z,8.11
2023-04-28T06:42:58.238Z,8.12
2023-04-28T06:45:34.138Z,8.17
2023-04-28T06:48:00.631Z,8.19
2023-04-28T06:50:27.197Z,8.20
2023-04-28T06:52:53.590Z,8.26
2023-04-28T06:55:20.911Z,8.27
2023-04-28T06:57:47.375Z,8.29
2023-04-28T07:00:14.456Z,8.33
2023-04-28T07:02:41.152Z,8.36
2023-04-28T07:05:08.792Z,8.40
2023-04-28T07:07:35.389Z,8.46
2023-04-28T07:10:02.162Z,8.50
2023-04-28T07:12:28.604Z,8.49
2023-04-28T07:14:56.117Z,8.55
2023-04-28T07:17:22.676Z,8.61
2023-04-28T07:19:50.892Z,8.63
2023-04-28T07:22:17.658Z,8.66
2023-04-28T07:24:44.768Z,8.74
2023-04-28T07:27:11.197Z,8.77
2023-04-28T07:29:38.216Z,8.81
2023-04-28T07:32:06.783Z,8.87
2023-04-28T07:34:35.650Z,8.89
2023-04-28T07:37:02.819Z,8.95
2023-04-28T07:39:31.394Z,9.00
2023-04-28T07:41:59.022Z,9.03
2023-04-28T07:44:25.582Z,9.08
2023-04-28T07:46:53.195Z,9.10
2023-04-28T07:49:19.715Z,9.17
2023-04-28T07:51:46.303Z,9.21
2023-04-28T07:54:13.050Z,9.24
2023-04-28T07:56:39.530Z,9.27
2023-04-28T07:59:05.965Z,9.33
2023-04-28T08:01:32.365Z,9.37
2023-04-28T08:03:59.134Z,9.40
2023-04-28T08:06:25.795Z,9.46
2023-04-28T08:08:52.306Z,9.48
2023-04-28T08:11:18.751Z,9.54
2023-04-28T08:13:45.178Z,9.58
2023-04-28T08:16:11.708Z,9.64
2023-04-28T08:18:39.806Z,9.66
2023-04-28T08:21:06.925Z,9.74
2023-04-28T08:23:33.326Z,9.76
2023-04-28T08:25:59.989Z,9.80
2023-04-28T08:28:28.017Z,9.88
2023-04-28T08:30:55.548Z,9.92
2023-04-28T08:33:23.692Z,9.95
2023-04-28T08:35:51.030Z,10.01
2023-04-28T08:38:18.147Z,10.05
2023-04-28T08:40:44.739Z,10.10
2023-04-28T08:43:11.530Z,10.08
2023-04-28T08:45:42.999Z,10.19
2023-04-28T08:48:22.246Z,10.25
2023-04-28T08:50:54.418Z,10.29
2023-04-28T08:53:25.910Z,10.34
2023-04-28T08:55:57.799Z,10.40
2023-04-28T08:58:25.723Z,10.43
2023-04-28T09:00:53.759Z,10.46
2023-04-28T09:03:23.154Z,10.55
2023-04-28T09:05:49.952Z,10.60
2023-04-28T09:08:16.974Z,10.62
2023-04-28T09:10:43.635Z,10.69
2023-04-28T09:13:10.072Z,10.77
2023-04-28T09:15:40.911Z,10.81
2023-04-28T09:18:08.187Z,10.86
2023-04-28T09:20:37.002Z,10.91
2023-04-28T09:23:18.086Z,10.93
2023-04-28T09:26:04.758Z,11.01
2023-04-28T09:28:33.067Z,11.08
2023-04-28T09:30:59.744Z,11.11
2023-04-28T09:33:26.368Z,11.17
2023-04-28T09:35:53.719Z,11.22
2023-04-28T09:38:21.973Z,11.28
2023-04-28T09:40:57.084Z,11.34
2023-04-28T09:43:26.499Z,11.38
2023-04-28T09:45:53.390Z,11.47
2023-04-28T09:48:30.995Z,11.50
2023-04-28T09:50:59.065Z,11.54
2023-04-28T09:53:27.005Z,11.59
2023-04-28T09:55:55.973Z,11.63
2023-04-28T09:58:23.706Z,11.68
2023-04-28T10:00:56.228Z,11.74
2023-04-28T10:03:26.821Z,11.77
2023-04-28T10:05:56.235Z,11.82
2023-04-28T10:08:24.751Z,11.86
2023-04-28T10:10:55.195Z,11.93
2023-04-28T10:13:22.891Z,11.95
2023-04-28T10:15:50.484Z,11.99
2023-04-28T10:18:17.109Z,12.04
2023-04-28T10:40:45.776Z,12.37
2023-04-28T10:43:12.930Z,12.46
2023-04-28T10:45:56.737Z,12.51
2023-04-28T10:48:46.137Z,12.54
2023-04-28T11:51:04.606Z,13.55
2023-04-28T11:53:44.359Z,13.62
2023-04-28T11:56:12.019Z,13.65
2023-04-28T11:58:38.456Z,13.75
2023-04-28T12:01:15.673Z,13.79
2023-04-28T12:03:46.982Z,13.81
2023-04-28T12:06:19.858Z,13.88
2023-04-28T12:08:47.583Z,13.94
2023-04-28T12:11:15.608Z,14.00
2023-04-28T12:13:43.429Z,14.05
2023-04-28T12:16:09.896Z,14.10
2023-04-28T12:18:36.992Z,14.15
2023-04-28T12:21:03.572Z,14.19
2023-04-28T12:23:34.112Z,14.25
2023-04-28T12:26:02.054Z,14.27
2023-04-28T12:28:38.799Z,14.30
2023-04-28T12:31:08.364Z,14.38
2023-04-28T12:33:39.440Z,14.41
2023-04-28T12:36:06.636Z,14.44
2023-04-28T12:38:33.321Z,14.49
2023-04-28T12:41:00.391Z,14.51
2023-04-28T12:43:29.065Z,14.55
2023-04-28T12:45:56.689Z,14.59
2023-04-28T12:48:24.946Z,14.63
2023-04-28T12:50:52.038Z,14.63
2023-04-28T12:53:18.558Z,14.67
2023-04-28T12:55:45.009Z,14.71
2023-04-28T12:58:11.433Z,14.71
2023-04-28T13:00:38.231Z,14.73
2023-04-28T13:03:04.831Z,14.76
2023-04-28T13:05:32.477Z,14.79
2023-04-28T13:07:59.557Z,14.82
2023-04-28T13:10:26.656Z,14.84
2023-04-28T13:12:53.102Z,14.86
2023-04-28T13:15:19.624Z,14.89
2023-04-28T13:17:46.423Z,14.92
2023-04-28T13:20:13.032Z,14.93
2023-04-28T13:22:40.392Z,14.95
2023-04-28T13:25:07.198Z,15.00
2023-04-28T13:27:33.710Z,15.04
2023-04-28T13:30:00.608Z,15.05
2023-04-28T13:32:27.989Z,15.07
2023-04-28T13:34:54.472Z,15.10
2023-04-28T13:37:21.530Z,15.11
2023-04-28T13:39:47.988Z,15.14
2023-04-28T13:42:16.046Z,15.15
2023-04-28T13:44:42.482Z,15.16
2023-04-28T13:47:09.818Z,15.20
2023-04-28T13:49:37.330Z,15.22
2023-04-28T13:52:03.817Z,15.19
2023-04-28T13:54:30.988Z,15.23
2023-04-28T13:56:57.635Z,15.26
2023-04-28T13:59:24.041Z,15.26
2023-04-28T14:01:50.517Z,15.28
2023-04-28T14:04:17.373Z,15.28
2023-04-28T14:06:44.057Z,15.29
2023-04-28T14:09:10.921Z,15.28
2023-04-28T14:11:37.352Z,15.30
2023-04-28T14:14:04.488Z,15.28
2023-04-28T14:16:31.124Z,15.28
2023-04-28T14:18:58.440Z,15.29
2023-04-28T14:21:28.590Z,15.31
2023-04-28T14:23:55.018Z,15.31
2023-04-28T14:26:23.750Z,15.31
2023-04-28T14:28:50.319Z,15.34
2023-04-28T14:31:17.887Z,15.32
2023-04-28T14:33:44.503Z,15.34
2023-04-28T14:36:11.337Z,15.35
2023-04-28T14:38:39.600Z,15.36
2023-04-28T14:41:06.678Z,15.30
2023-04-28T14:43:33.942Z,15.38
2023-04-28T14:46:04.734Z,15.37
2023-04-28T15:01:41.258Z,15.31
2023-04-28T15:04:17.133Z,15.32
2023-04-28T15:06:43.747Z,15.32
2023-04-28T15:09:10.726Z,15.29
2023-04-28T15:11:37.208Z,15.36
2023-04-28T15:14:03.658Z,15.36
2023-04-28T15:16:30.167Z,15.34
2023-04-28T15:18:56.866Z,15.35
2023-04-28T15:21:23.557Z,15.36
2023-04-28T15:23:50.004Z,15.35
2023-04-28T15:26:16.624Z,15.35
2023-04-28T15:28:43.110Z,15.35
2023-04-28T15:31:09.926Z,15.36
2023-04-28T15:33:36.400Z,15.38
2023-04-28T15:36:02.842Z,15.37
2023-04-28T15:38:31.240Z,15.37
2023-04-28T15:40:58.360Z,15.36
2023-04-28T15:43:25.216Z,15.35
2023-04-28T15:45:52.034Z,15.37
2023-04-28T15:48:18.489Z,15.35
2023-04-28T15:50:44.908Z,15.37
2023-04-28T15:53:11.372Z,15.36
2023-04-28T15:55:37.903Z,15.36
2023-04-28T15:58:04.351Z,15.36
2023-04-28T16:00:30.907Z,15.37
2023-04-28T16:02:57.409Z,15.35
2023-04-28T16:05:23.883Z,15.33
2023-04-28T16:07:50.310Z,15.35
2023-04-28T16:10:17.228Z,15.37
2023-04-28T16:12:43.967Z,15.35
2023-04-28T16:15:12.618Z,15.31
2023-04-28T16:17:39.810Z,15.32
2023-04-28T16:20:07.892Z,15.32
2023-04-28T16:22:35.617Z,15.32
2023-04-28T16:25:03.967Z,15.29
2023-04-28T16:27:31.005Z,15.32
2023-04-28T16:29:57.606Z,15.29
2023-04-28T16:32:24.053Z,15.29
2023-04-28T16:34:50.929Z,15.31
2023-04-28T16:37:17.635Z,15.30
2023-04-28T16:39:44.105Z,15.29
2023-04-28T16:42:10.875Z,15.28
2023-04-28T16:44:37.348Z,15.27
2023-04-28T16:47:04.473Z,15.28
2023-04-28T16:49:30.965Z,15.26
2023-04-28T16:52:01.104Z,15.28
2023-04-28T16:54:29.060Z,15.26
2023-04-28T16:56:56.462Z,15.24
2023-04-28T16:59:24.916Z,15.25
2023-04-28T17:01:51.334Z,15.25
2023-04-28T17:04:18.067Z,15.24
2023-04-28T17:06:45.107Z,15.22
2023-04-28T17:09:12.440Z,15.21
2023-04-28T17:11:38.893Z,15.22
2023-04-28T17:14:05.421Z,15.21
2023-04-28T17:16:32.855Z,15.18
2023-04-28T17:19:00.260Z,15.19
2023-04-28T17:21:29.083Z,15.18
2023-04-28T17:23:57.578Z,15.17
2023-04-28T17:26:29.102Z,15.17
2023-04-28T17:28:56.453Z,15.16
2023-04-28T17:31:22.984Z,15.14
2023-04-28T17:33:53.728Z,15.13
2023-04-28T17:36:23.131Z,15.12
2023-04-28T17:38:52.527Z,15.09
2023-04-28T17:41:19.816Z,15.10
2023-04-28T17:43:46.213Z,15.10
2023-04-28T17:46:14.514Z,15.07
2023-04-28T17:48:42.514Z,15.08
2023-04-28T17:51:09.098Z,15.05
2023-04-28T17:53:36.485Z,15.04
2023-04-28T17:56:03.638Z,15.04
2023-04-28T17:58:32.376Z,15.00
2023-04-28T18:01:00.504Z,14.99
2023-04-28T18:03:27.246Z,15.00
2023-04-28T18:05:53.774Z,14.99
2023-04-28T18:08:20.220Z,14.98
2023-04-28T18:10:46.639Z,14.93
2023-04-28T18:13:13.189Z,14.92
2023-04-28T18:15:39.905Z,14.91
2023-04-28T18:18:06.405Z,14.91
2023-04-28T18:20:32.844Z,14.91
2023-04-28T18:22:59.407Z,14.87
2023-04-28T18:25:25.880Z,14.85
2023-04-28T18:27:53.860Z,14.85
2023-04-28T18:30:20.392Z,14.84
2023-04-28T18:32:48.809Z,14.84
2023-04-28T18:35:15.880Z,14.83
2023-04-28T18:37:46.025Z,14.80
2023-04-28T18:40:12.490Z,14.77
2023-04-28T18:42:38.970Z,14.78
2023-04-28T18:45:08.946Z,14.77
2023-04-28T18:47:35.569Z,14.75
2023-04-28T18:50:02.989Z,14.74
2023-04-28T18:52:30.000Z,14.72
2023-04-28T18:54:56.549Z,14.72
2023-04-28T18:57:25.972Z,14.71
2023-04-28T18:59:52.759Z,14.70
2023-04-28T19:02:19.392Z,14.69
2023-04-28T19:04:46.046Z,14.67
2023-04-28T19:07:12.551Z,14.68
2023-04-28T19:09:39.038Z,14.67
2023-04-28T19:12:05.590Z,14.64
2023-04-28T19:14:32.082Z,14.63
2023-04-28T19:16:58.591Z,14.64
2023-04-28T19:19:25.073Z,14.61
2023-04-28T19:21:52.443Z,14.60
2023-04-28T19:24:19.128Z,14.56
2023-04-28T19:26:45.572Z,14.56
2023-04-28T19:29:14.866Z,14.54
2023-04-28T19:31:41.339Z,14.53
2023-04-28T19:34:07.825Z,14.50
2023-04-28T19:36:34.370Z,14.50
2023-04-28T19:39:01.301Z,14.48
2023-04-28T19:41:27.760Z,14.45
2023-04-28T19:43:54.223Z,14.44
2023-04-28T19:46:21.240Z,14.43
2023-04-28T19:48:47.796Z,14.43
2023-04-28T19:51:14.442Z,14.42
2023-04-28T19:53:40.954Z,14.40
2023-04-28T19:56:10.081Z,14.34
2023-04-28T19:58:36.950Z,14.35
2023-04-28T20:01:06.673Z,14.34
2023-04-28T20:03:34.590Z,14.33
2023-04-28T20:06:01.212Z,14.31
2023-04-28T20:08:28.326Z,14.30
2023-04-28T20:10:54.975Z,14.29
2023-04-28T20:13:21.410Z,14.28
2023-04-28T20:15:47.997Z,14.27
2023-04-28T20:18:14.564Z,14.23
2023-04-28T20:20:41.041Z,14.24
2023-04-28T20:23:07.465Z,14.22
2023-04-28T20:25:36.740Z,14.21
2023-04-28T20:28:03.167Z,14.20
2023-04-28T20:30:29.578Z,14.19
2023-04-28T20:32:56.173Z,14.17
2023-04-28T20:35:22.967Z,14.17
2023-04-28T20:37:49.546Z,14.15
2023-04-28T20:40:15.999Z,14.15
2023-04-28T20:42:42.413Z,14.13
2023-04-28T20:45:09.124Z,14.10
2023-04-28T20:47:36.360Z,14.10
2023-04-28T20:50:03.314Z,14.11
2023-04-28T20:52:29.766Z,14.10
2023-04-28T20:54:56.998Z,14.06
2023-04-28T20:57:23.833Z,14.06
2023-04-28T20:59:50.523Z,14.03
2023-04-28T21:02:17.230Z,14.04
2023-04-28T21:04:43.684Z,14.02
2023-04-28T21:07:10.175Z,14.03
2023-04-28T21:09:37.472Z,13.99
2023-04-28T21:12:04.322Z,14.00
2023-04-28T21:14:34.016Z,13.98
2023-04-28T21:17:02.250Z,13.97
2023-04-28T21:19:29.944Z,13.96
2023-04-28T21:21:57.013Z,13.93
2023-04-28T21:24:23.556Z,13.93
2023-04-28T21:26:50.201Z,13.93
2023-04-28T21:29:18.352Z,13.91
2023-04-28T21:31:46.014Z,13.90
2023-04-28T21:34:12.682Z,13.90
2023-04-28T21:36:39.913Z,13.89
2023-04-28T21:39:06.460Z,13.86
2023-04-28T21:41:32.926Z,13.85
2023-04-28T21:44:00.142Z,13.86
2023-04-28T21:46:27.609Z,13.82
2023-04-28T21:48:54.159Z,13.81
2023-04-28T21:51:20.649Z,13.82
2023-04-28T21:53:47.074Z,13.82
2023-04-28T21:56:15.816Z,13.82
2023-04-28T21:58:42.659Z,13.81
2023-04-28T22:01:09.292Z,13.78
2023-04-28T22:03:36.417Z,13.77
2023-04-28T22:06:03.274Z,13.77
2023-04-28T22:08:31.180Z,13.76
2023-04-28T22:10:58.045Z,13.73
2023-04-28T22:13:24.703Z,13.73
2023-04-28T22:15:51.827Z,13.72
2023-04-28T22:18:18.367Z,13.70
2023-04-28T22:20:44.913Z,13.71
2023-04-28T22:23:11.298Z,13.67
2023-04-28T22:25:37.980Z,13.68
2023-04-28T22:28:04.807Z,13.66
2023-04-28T22:30:31.795Z,13.64
2023-04-28T22:32:58.327Z,13.63
2023-04-28T22:35:25.751Z,13.60
2023-04-28T22:37:52.278Z,13.61
2023-04-28T22:40:18.783Z,13.60
2023-04-28T22:42:45.247Z,13.58
2023-04-28T22:45:12.338Z,13.58
2023-04-28T22:47:40.670Z,13.57
2023-04-28T22:50:11.235Z,13.57
2023-04-28T22:52:37.944Z,13.54
2023-04-28T22:55:04.817Z,13.54
2023-04-28T22:57:31.279Z,13.54
2023-04-28T22:59:57.720Z,13.54
2023-04-28T23:02:24.885Z,13.53
2023-04-28T23:04:51.744Z,13.49
2023-04-28T23:07:18.225Z,13.49
2023-04-28T23:09:44.680Z,13.45
2023-04-28T23:12:11.114Z,13.47
2023-04-28T23:14:38.058Z,13.45
2023-04-28T23:17:04.478Z,13.42
2023-04-28T23:19:30.940Z,13.42
2023-04-28T23:21:57.369Z,13.41
2023-04-28T23:24:23.796Z,13.40
2023-04-28T23:26:50.291Z,13.40
2023-04-28T23:29:17.260Z,13.38
2023-04-28T23:31:43.747Z,13.38
2023-04-28T23:34:10.182Z,13.38
2023-04-28T23:36:37.705Z,13.36
2023-04-28T23:39:04.145Z,13.37
2023-04-28T23:41:30.884Z,13.35
2023-04-28T23:43:57.362Z,13.35
2023-04-28T23:46:23.910Z,13.32
2023-04-28T23:48:50.649Z,13.30
2023-04-28T23:51:17.121Z,13.30
2023-04-28T23:53:43.868Z,13.26
2023-04-28T23:56:10.362Z,13.27
2023-04-28T23:58:37.661Z,13.24
